createdAt,value
2024-01-05T00:01:44.742Z,1.50
2024-01-05T00:04:11.263Z,0.85
2024-01-05T00:06:39.193Z,0.90
2024-01-05T00:09:06.025Z,0.68
2024-01-05T00:11:32.641Z,0.60
2024-01-05T00:13:59.160Z,0.68
2024-01-05T00:16:25.841Z,0.75
2024-01-05T00:18:52.559Z,0.80
2024-01-05T00:21:23.334Z,1.00
2024-01-05T00:23:51.361Z,1.13
2024-01-05T00:26:18.249Z,0.65
2024-01-05T00:28:45.504Z,0.93
2024-01-05T00:31:12.476Z,0.70
2024-01-05T00:33:39.841Z,0.70
2024-01-05T00:36:07.404Z,0.80
2024-01-05T00:38:34.261Z,0.85
2024-01-05T00:41:00.911Z,0.70
2024-01-05T00:43:27.471Z,0.85
2024-01-05T00:45:54.944Z,0.68
2024-01-05T00:48:21.614Z,0.50
2024-01-05T00:50:48.239Z,0.70
2024-01-05T00:53:14.967Z,0.68
2024-01-05T00:55:41.552Z,0.80
2024-01-05T00:58:08.163Z,0.90
2024-01-05T01:00:34.760Z,0.90
2024-01-05T01:03:01.638Z,0.60
2024-01-05T01:05:28.274Z,0.40
2024-01-05T01:07:54.841Z,0.88
2024-01-05T01:10:21.323Z,0.63
2024-01-05T01:12:47.881Z,0.68
2024-01-05T01:15:14.505Z,0.75
2024-01-05T01:17:41.153Z,0.70
2024-01-05T01:20:08.051Z,0.82
2024-01-05T01:22:34.607Z,0.85
2024-01-05T01:25:01.219Z,0.75
2024-01-05T01:27:27.892Z,0.77
2024-01-05T01:29:54.521Z,0.73
2024-01-05T01:32:21.071Z,0.73
2024-01-05T01:34:47.678Z,0.98
2024-01-05T01:37:14.211Z,0.88
2024-01-05T01:39:40.757Z,0.50
2024-01-05T01:42:07.400Z,0.70
2024-01-05T01:44:34.080Z,0.60
2024-01-05T01:47:00.638Z,0.55
2024-01-05T01:49:27.429Z,0.43
2024-01-05T01:51:54.581Z,0.75
2024-01-05T01:54:21.675Z,0.55
2024-01-05T01:56:49.741Z,0.70
2024-01-05T01:59:16.486Z,0.80
2024-01-05T02:01:43.802Z,0.85
2024-01-05T02:04:16.225Z,0.65
2024-01-05T02:06:46.294Z,0.82
2024-01-05T02:09:13.408Z,0.80
2024-01-05T02:11:42.635Z,0.77
2024-01-05T02:14:09.332Z,0.55
2024-01-05T02:16:35.860Z,0.50
2024-01-05T02:19:02.851Z,0.57
2024-01-05T02:21:34.893Z,1.15
2024-01-05T02:24:01.645Z,0.93
2024-01-05T02:26:28.504Z,1.10
2024-01-05T02:28:55.094Z,0.70
2024-01-05T02:31:21.730Z,0.85
2024-01-05T02:33:48.484Z,0.73
2024-01-05T02:36:15.235Z,0.73
2024-01-05T02:38:41.788Z,0.47
2024-01-05T02:41:08.968Z,0.57
2024-01-05T02:43:35.498Z,0.82
2024-01-05T02:46:02.112Z,0.68
2024-01-05T02:48:28.759Z,0.50
2024-01-05T02:50:55.474Z,0.30
2024-01-05T02:53:22.128Z,0.30
2024-01-05T02:55:48.713Z,0.60
2024-01-05T02:58:15.201Z,0.55
2024-01-05T03:00:41.908Z,0.40
2024-01-05T03:03:08.735Z,0.30
2024-01-05T03:05:35.413Z,0.40
2024-01-05T03:08:01.983Z,0.17
2024-01-05T03:10:28.530Z,0.25
2024-01-05T03:12:55.047Z,0.38
2024-01-05T03:15:21.683Z,0.40
2024-01-05T03:17:49.504Z,0.35
2024-01-05T03:20:18.845Z,0.50
2024-01-05T03:22:45.589Z,0.70
2024-01-05T03:25:12.093Z,0.32
2024-01-05T03:27:38.684Z,0.30
2024-01-05T03:30:05.729Z,0.30
2024-01-05T03:32:32.458Z,0.32
2024-01-05T03:34:59.073Z,0.30
2024-01-05T03:37:25.710Z,0.25
2024-01-05T03:39:52.289Z,0.35
2024-01-05T03:42:19.420Z,0.50
2024-01-05T03:44:46.102Z,0.77
2024-01-05T03:47:12.621Z,0.60
2024-01-05T03:49:39.324Z,0.60
2024-01-05T03:52:06.022Z,0.70
2024-01-05T03:54:32.682Z,0.50
2024-01-05T03:56:59.278Z,0.73
2024-01-05T03:59:25.867Z,0.50
2024-01-05T04:01:52.462Z,0.60
2024-01-05T04:04:19.369Z,0.60
2024-01-05T04:06:47.075Z,0.52
2024-01-05T04:09:13.993Z,0.93
2024-01-05T04:11:40.940Z,1.10
2024-01-05T04:14:08.107Z,0.82
2024-01-05T04:16:34.895Z,0.68
2024-01-05T04:19:02.366Z,0.80
2024-01-05T04:21:29.090Z,1.10
2024-01-05T04:23:56.882Z,0.90
2024-01-05T04:26:23.718Z,0.82
2024-01-05T04:28:50.288Z,1.00
2024-01-05T04:31:17.062Z,0.80
2024-01-05T04:33:44.215Z,0.98
2024-01-05T04:36:11.613Z,0.77
2024-01-05T04:38:38.263Z,0.73
2024-01-05T04:41:04.837Z,0.80
2024-01-05T04:43:31.429Z,0.75
2024-01-05T04:45:57.998Z,0.70
2024-01-05T04:48:24.775Z,0.63
2024-01-05T04:50:52.375Z,0.80
2024-01-05T04:53:18.925Z,0.80
2024-01-05T04:55:45.480Z,0.63
2024-01-05T04:58:12.073Z,0.80
2024-01-05T05:00:38.667Z,0.60
2024-01-05T05:03:06.402Z,0.98
2024-01-05T05:05:33.029Z,0.70
2024-01-05T05:07:59.611Z,0.70
2024-01-05T05:10:26.486Z,0.80
2024-01-05T05:12:53.059Z,0.65
2024-01-05T05:15:19.715Z,0.70
2024-01-05T05:17:46.453Z,0.90
2024-01-05T05:20:13.913Z,0.80
2024-01-05T05:22:40.566Z,0.75
2024-01-05T05:25:07.944Z,0.80
2024-01-05T05:27:34.889Z,0.98
2024-01-05T05:30:05.537Z,0.75
2024-01-05T05:32:32.218Z,0.68
2024-01-05T05:34:59.331Z,0.50
2024-01-05T05:37:25.909Z,0.90
2024-01-05T05:39:52.453Z,2.00
2024-01-05T05:42:19.121Z,1.70
2024-01-05T05:44:45.715Z,1.42
2024-01-05T05:47:12.228Z,1.40
2024-01-05T05:49:39.242Z,1.20
2024-01-05T05:52:06.751Z,3.67
2024-01-05T05:54:33.505Z,1.73
2024-01-05T05:57:00.053Z,0.82
2024-01-05T05:59:26.629Z,0.95
2024-01-05T06:01:53.151Z,1.38
2024-01-05T06:04:19.909Z,1.30
2024-01-05T06:06:47.452Z,1.60
2024-01-05T06:09:16.106Z,1.67
2024-01-05T06:11:43.034Z,1.05
2024-01-05T06:14:09.713Z,0.73
2024-01-05T06:16:36.258Z,1.00
2024-01-05T06:19:03.193Z,1.00
2024-01-05T06:21:29.860Z,1.00
2024-01-05T06:23:56.611Z,1.23
2024-01-05T06:26:23.226Z,1.35
2024-01-05T06:28:49.804Z,1.60
2024-01-05T06:31:16.439Z,1.10
2024-01-05T06:33:44.075Z,2.25
2024-01-05T06:36:11.124Z,2.67
2024-01-05T06:38:37.760Z,2.00
2024-01-05T06:41:04.337Z,1.42
2024-01-05T06:43:30.869Z,1.45
2024-01-05T06:45:57.408Z,1.50
2024-01-05T06:48:24.160Z,2.00
2024-01-05T06:50:51.011Z,1.67
2024-01-05T06:53:17.535Z,1.73
2024-01-05T06:55:44.114Z,1.95
2024-01-05T06:58:10.628Z,1.35
2024-01-05T07:00:39.387Z,1.75
2024-01-05T07:03:06.286Z,2.25
2024-01-05T07:05:33.061Z,2.58
2024-01-05T07:07:59.690Z,3.03
2024-01-05T07:10:26.346Z,2.42
2024-01-05T07:12:53.404Z,2.53
2024-01-05T07:15:20.229Z,2.97
2024-01-05T07:17:46.960Z,2.70
2024-01-05T07:20:13.845Z,2.38
2024-01-05T07:22:40.441Z,1.15
2024-01-05T07:25:10.764Z,0.70
2024-01-05T07:27:38.342Z,0.50
2024-01-05T07:30:05.834Z,0.70
2024-01-05T07:32:32.510Z,1.02
2024-01-05T07:34:59.204Z,1.00
2024-01-05T07:37:25.871Z,1.52
2024-01-05T07:39:52.472Z,1.20
2024-01-05T07:42:19.009Z,1.30
2024-01-05T07:44:45.548Z,1.10
2024-01-05T07:47:12.391Z,1.23
2024-01-05T07:49:39.058Z,1.48
2024-01-05T07:52:05.850Z,1.40
2024-01-05T07:54:32.420Z,1.80
2024-01-05T07:56:59.312Z,3.15
2024-01-05T07:59:25.839Z,2.58
2024-01-05T08:01:53.297Z,2.58
2024-01-05T08:04:20.052Z,2.58
2024-01-05T08:06:49.578Z,1.98
2024-01-05T08:09:16.849Z,1.60
2024-01-05T08:11:43.664Z,1.05
2024-01-05T08:14:10.500Z,0.40
2024-01-05T08:16:37.593Z,0.22
2024-01-05T08:19:04.320Z,0.30
2024-01-05T08:21:31.439Z,0.75
2024-01-05T08:23:58.133Z,1.80
2024-01-05T08:26:24.771Z,2.22
2024-01-05T08:28:51.302Z,2.65
2024-01-05T08:31:19.201Z,2.50
2024-01-05T08:33:46.067Z,4.38
2024-01-05T08:36:13.101Z,4.93
2024-01-05T08:38:39.699Z,4.13
2024-01-05T08:41:06.243Z,4.35
2024-01-05T08:43:34.437Z,5.47
2024-01-05T08:46:02.345Z,5.70
2024-01-05T08:48:29.065Z,6.10
2024-01-05T08:50:55.706Z,5.82
2024-01-05T08:53:22.430Z,5.22
2024-01-05T08:55:48.963Z,3.92
2024-01-05T08:58:15.493Z,4.97
2024-01-05T09:00:42.234Z,5.70
2024-01-05T09:03:09.043Z,4.50
2024-01-05T09:05:35.777Z,4.13
2024-01-05T09:08:02.341Z,3.13
2024-01-05T09:10:28.969Z,3.42
2024-01-05T09:12:55.641Z,3.03
2024-01-05T09:15:24.370Z,3.15
2024-01-05T09:17:51.122Z,3.30
2024-01-05T09:20:17.782Z,2.83
2024-01-05T09:22:44.355Z,3.40
2024-01-05T09:25:11.011Z,3.33
2024-01-05T09:27:37.894Z,3.00
2024-01-05T09:30:04.887Z,2.88
2024-01-05T09:32:31.975Z,2.63
2024-01-05T09:34:58.790Z,3.55
2024-01-05T09:37:25.331Z,3.03
2024-01-05T09:39:51.856Z,2.92
2024-01-05T09:42:18.477Z,3.08
2024-01-05T09:44:47.605Z,3.20
2024-01-05T09:47:15.086Z,3.08
2024-01-05T09:49:46.252Z,2.50
2024-01-05T09:54:40.154Z,2.17
2024-01-05T09:57:07.034Z,2.00
2024-01-05T09:59:39.534Z,2.25
2024-01-05T10:02:09.284Z,1.85
2024-01-05T10:04:35.990Z,1.98
2024-01-05T10:07:02.891Z,1.50
2024-01-05T10:09:30.650Z,1.50
2024-01-05T10:11:58.137Z,2.45
2024-01-05T10:14:28.688Z,2.17
2024-01-05T10:17:17.275Z,2.42
2024-01-05T10:19:44.418Z,3.00
2024-01-05T10:22:12.104Z,2.15
2024-01-05T10:24:38.918Z,1.67
2024-01-05T10:27:15.124Z,1.70
2024-01-05T10:29:46.557Z,2.42
2024-01-05T10:32:14.398Z,3.38
2024-01-05T10:34:42.303Z,3.88
2024-01-05T10:37:09.314Z,3.58
2024-01-05T10:39:36.606Z,3.50
2024-01-05T10:42:20.088Z,3.28
2024-01-05T10:44:47.211Z,3.80
2024-01-05T10:47:15.968Z,3.17
2024-01-05T10:49:50.638Z,3.75
2024-01-05T10:52:21.921Z,3.90
2024-01-05T10:54:49.147Z,3.97
2024-01-05T10:57:16.378Z,4.10
2024-01-05T10:59:46.762Z,3.92
2024-01-05T11:02:23.830Z,3.95
2024-01-05T11:05:12.434Z,3.55
2024-01-05T11:07:39.749Z,3.40
2024-01-05T11:10:12.504Z,3.42
2024-01-05T11:12:57.086Z,3.95
2024-01-05T11:15:23.988Z,3.60
2024-01-05T11:18:01.945Z,3.80
2024-01-05T11:20:47.379Z,3.38
2024-01-05T11:23:15.342Z,3.42
2024-01-05T11:25:42.076Z,3.17
2024-01-05T11:28:08.708Z,3.80
2024-01-05T11:30:39.184Z,4.13
2024-01-05T11:33:08.108Z,4.78
2024-01-05T11:35:42.462Z,4.50
2024-01-05T11:38:24.786Z,4.63
2024-01-05T11:40:51.344Z,4.43
2024-01-05T11:43:34.772Z,3.72
2024-01-05T11:46:01.361Z,3.40
2024-01-05T11:48:38.523Z,1.63
2024-01-05T11:51:09.362Z,1.95
2024-01-05T11:53:36.327Z,1.77
2024-01-05T11:56:12.092Z,2.35
2024-01-05T11:58:44.436Z,2.10
2024-01-05T12:01:11.961Z,1.63
2024-01-05T12:03:40.021Z,1.27
2024-01-05T12:06:07.973Z,1.27
2024-01-05T12:08:34.972Z,0.88
2024-01-05T12:11:04.168Z,0.70
2024-01-05T12:13:31.878Z,0.88
2024-01-05T12:16:01.914Z,0.75
2024-01-05T12:18:37.544Z,0.70
2024-01-05T12:21:07.837Z,2.95
2024-01-05T12:23:35.540Z,6.10
2024-01-05T12:26:06.719Z,6.65
2024-01-05T12:31:02.050Z,5.28
2024-01-05T12:33:29.568Z,5.72
2024-01-05T12:35:56.719Z,3.80
2024-01-05T12:38:24.369Z,3.75
2024-01-05T12:40:51.358Z,2.70
2024-01-05T12:43:18.459Z,2.85
2024-01-05T12:45:47.495Z,2.15
2024-01-05T12:48:14.475Z,2.10
2024-01-05T12:50:41.559Z,2.67
2024-01-05T12:53:21.027Z,2.30
2024-01-05T12:55:47.760Z,2.08
2024-01-05T12:58:14.332Z,2.03
2024-01-05T13:00:45.792Z,2.30
2024-01-05T13:03:18.908Z,2.58
2024-01-05T13:05:46.237Z,2.75
2024-01-05T13:08:12.809Z,2.80
2024-01-05T13:10:42.016Z,3.67
2024-01-05T13:13:08.740Z,3.20
2024-01-05T13:15:35.623Z,3.30
2024-01-05T13:18:03.256Z,3.20
2024-01-05T13:20:30.201Z,3.72
2024-01-05T13:22:57.333Z,3.92
2024-01-05T13:25:24.723Z,3.63
2024-01-05T13:27:51.416Z,4.22
2024-01-05T13:30:18.236Z,3.38
2024-01-05T13:32:45.600Z,3.10
2024-01-05T13:35:12.702Z,2.60
2024-01-05T13:37:39.333Z,3.30
2024-01-05T13:40:07.200Z,3.10
2024-01-05T13:42:34.007Z,2.40
2024-01-05T13:45:06.087Z,1.88
2024-01-05T13:47:38.274Z,1.27
2024-01-05T13:50:05.149Z,1.73
2024-01-05T13:52:31.751Z,0.80
2024-01-05T13:54:58.556Z,0.70
2024-01-05T13:57:25.196Z,1.00
2024-01-05T13:59:51.964Z,1.10
2024-01-05T14:02:21.494Z,0.88
2024-01-05T14:04:48.839Z,1.30
2024-01-05T14:07:16.077Z,0.90
2024-01-05T14:09:43.665Z,0.90
2024-01-05T14:12:10.648Z,1.20
2024-01-05T14:14:37.325Z,15.05
2024-01-05T14:17:04.372Z,19.23
2024-01-05T14:19:31.168Z,3.25
2024-01-05T14:21:58.928Z,2.40
2024-01-05T14:24:25.660Z,2.70
2024-01-05T14:26:52.283Z,2.63
2024-01-05T14:29:19.610Z,2.30
2024-01-05T14:31:46.271Z,2.30
2024-01-05T14:34:15.605Z,2.13
2024-01-05T14:36:42.336Z,1.98
2024-01-05T14:39:10.800Z,1.33
2024-01-05T14:41:37.745Z,2.00
2024-01-05T14:44:04.629Z,1.23
2024-01-05T14:46:31.248Z,1.10
2024-01-05T14:48:58.635Z,1.58
2024-01-05T14:51:26.183Z,1.20
2024-01-05T14:53:53.005Z,1.20
2024-01-05T14:56:19.739Z,0.93
2024-01-05T14:58:48.695Z,1.10
2024-01-05T15:01:17.296Z,0.88
2024-01-05T15:03:44.249Z,1.00
2024-01-05T15:06:11.317Z,1.05
2024-01-05T15:08:38.548Z,1.00
2024-01-05T15:11:06.061Z,0.65
2024-01-05T15:13:33.881Z,0.77
2024-01-05T15:16:01.201Z,0.90
2024-01-05T15:18:28.174Z,0.60
2024-01-05T15:20:55.245Z,0.55
2024-01-05T15:23:21.898Z,0.50
2024-01-05T15:25:48.617Z,0.70
2024-01-05T15:28:15.517Z,0.50
2024-01-05T15:30:42.229Z,0.50
2024-01-05T15:33:09.031Z,0.30
2024-01-05T15:35:37.073Z,0.40
2024-01-05T15:38:04.378Z,0.40
2024-01-05T15:40:32.023Z,0.35
2024-01-05T15:43:02.592Z,0.40
2024-01-05T15:45:33.023Z,0.60
2024-01-05T15:48:00.878Z,0.60
2024-01-05T15:50:29.068Z,0.50
2024-01-05T15:52:55.683Z,0.50
2024-01-05T15:55:23.542Z,0.50
2024-01-05T15:57:50.384Z,0.50
2024-01-05T16:00:17.080Z,0.50
2024-01-05T16:02:43.699Z,0.57
2024-01-05T16:05:10.663Z,0.40
2024-01-05T16:07:37.425Z,0.45
2024-01-05T16:10:05.336Z,1.00
2024-01-05T16:12:32.110Z,0.47
2024-01-05T16:14:58.647Z,0.38
2024-01-05T16:17:25.209Z,0.60
2024-01-05T16:19:51.820Z,0.93
2024-01-05T16:22:18.473Z,1.38
2024-01-05T16:24:45.023Z,0.52
2024-01-05T16:27:11.718Z,0.50
2024-01-05T16:29:38.291Z,0.57
2024-01-05T16:32:04.928Z,0.38
2024-01-05T16:34:31.583Z,0.47
2024-01-05T16:37:00.110Z,0.45
2024-01-05T16:39:26.853Z,0.60
2024-01-05T16:41:53.386Z,0.55
2024-01-05T16:44:19.962Z,0.50
2024-01-05T16:46:46.472Z,0.40
2024-01-05T16:49:13.271Z,0.40
2024-01-05T16:51:40.244Z,0.45
2024-01-05T16:54:06.880Z,0.30
2024-01-05T16:56:41.116Z,0.55
2024-01-05T16:59:10.565Z,0.75
2024-01-05T17:01:37.116Z,0.30
2024-01-05T17:04:10.250Z,0.43
2024-01-05T17:06:38.326Z,0.55
2024-01-05T17:09:08.121Z,0.75
2024-01-05T17:11:34.660Z,0.70
2024-01-05T17:14:01.221Z,1.13
2024-01-05T17:16:28.706Z,0.70
2024-01-05T17:19:00.594Z,0.38
2024-01-05T17:21:29.435Z,0.40
2024-01-05T17:23:56.261Z,1.00
2024-01-05T17:26:23.467Z,0.93
2024-01-05T17:28:50.566Z,3.08
2024-01-05T17:31:17.274Z,1.35
2024-01-05T17:33:44.686Z,0.70
2024-01-05T17:36:12.099Z,0.55
2024-01-05T17:38:38.720Z,0.40
2024-01-05T17:41:05.270Z,0.40
2024-01-05T17:43:32.080Z,0.73
2024-01-05T17:46:03.525Z,0.60
2024-01-05T17:48:30.187Z,0.45
2024-01-05T17:51:01.255Z,0.73
2024-01-05T17:53:29.049Z,0.63
2024-01-05T17:55:55.651Z,0.65
2024-01-05T17:58:22.182Z,0.98
2024-01-05T18:00:48.834Z,0.60
2024-01-05T18:03:15.919Z,0.30
2024-01-05T18:05:42.492Z,1.10
2024-01-05T18:08:09.166Z,1.17
2024-01-05T18:10:35.823Z,0.60
2024-01-05T18:13:02.326Z,0.75
2024-01-05T18:15:28.915Z,0.70
2024-01-05T18:17:55.539Z,0.85
2024-01-05T18:20:22.564Z,0.75
2024-01-05T18:22:49.077Z,0.55
2024-01-05T18:25:15.691Z,0.80
2024-01-05T18:27:42.266Z,0.90
2024-01-05T18:30:09.374Z,0.90
2024-01-05T18:32:36.083Z,0.70
2024-01-05T18:35:02.757Z,0.73
2024-01-05T18:37:29.408Z,0.73
2024-01-05T18:39:56.066Z,0.80
2024-01-05T18:42:22.646Z,0.93
2024-01-05T18:44:49.226Z,1.00
2024-01-05T18:47:16.118Z,0.50
2024-01-05T18:49:42.922Z,0.65
2024-01-05T18:52:09.736Z,0.50
2024-01-05T18:54:36.289Z,0.70
2024-01-05T18:57:02.951Z,0.60
2024-01-05T18:59:29.622Z,0.30
2024-01-05T19:01:56.364Z,0.60
2024-01-05T19:04:23.206Z,0.70
2024-01-05T19:06:50.027Z,0.90
2024-01-05T19:09:16.636Z,1.10
2024-01-05T19:11:43.460Z,1.48
2024-01-05T19:14:10.102Z,1.10
2024-01-05T19:16:41.441Z,0.80
2024-01-05T19:19:10.940Z,0.88
2024-01-05T19:21:49.803Z,0.60
2024-01-05T19:24:22.381Z,0.38
2024-01-05T19:26:48.947Z,0.40
2024-01-05T19:29:15.492Z,0.50
2024-01-05T19:31:43.261Z,0.60
2024-01-05T19:34:10.270Z,0.50
2024-01-05T19:36:38.012Z,0.20
2024-01-05T19:39:05.456Z,0.47
2024-01-05T19:41:32.079Z,0.47
2024-01-05T19:44:00.268Z,0.70
2024-01-05T19:46:26.803Z,0.70
2024-01-05T19:48:55.835Z,0.63
2024-01-05T19:51:23.569Z,0.88
2024-01-05T19:53:50.211Z,0.70
2024-01-05T19:56:16.961Z,0.45
2024-01-05T19:58:43.494Z,0.68
2024-01-05T20:01:10.175Z,0.77
2024-01-05T20:03:36.857Z,0.70
2024-01-05T20:06:04.706Z,1.08
2024-01-05T20:08:31.455Z,1.30
2024-01-05T20:10:58.817Z,0.70
2024-01-05T20:13:25.402Z,0.70
2024-01-05T20:15:52.098Z,1.02
2024-01-05T20:18:18.939Z,0.90
2024-01-05T20:20:45.644Z,0.68
2024-01-05T20:23:13.083Z,0.95
2024-01-05T20:25:39.656Z,0.80
2024-01-05T20:28:07.608Z,4.53
2024-01-05T20:30:34.343Z,2.17
2024-01-05T20:33:00.947Z,1.10
2024-01-05T20:35:27.694Z,0.77
2024-01-05T20:37:54.523Z,1.15
2024-01-05T20:40:21.179Z,0.85
2024-01-05T20:42:48.301Z,0.90
2024-01-05T20:45:15.119Z,1.00
2024-01-05T20:47:42.332Z,1.58
2024-01-05T20:50:09.086Z,2.20
2024-01-05T20:52:36.048Z,1.98
2024-01-05T20:55:03.065Z,2.00
2024-01-05T20:57:29.806Z,2.10
2024-01-05T20:59:56.450Z,2.58
2024-01-05T21:02:23.012Z,1.67
2024-01-05T21:04:49.845Z,1.15
2024-01-05T21:07:18.012Z,2.55
2024-01-05T21:09:44.763Z,1.40
2024-01-05T21:12:11.458Z,1.67
2024-01-05T21:14:41.152Z,1.65
2024-01-05T21:17:08.224Z,1.60
2024-01-05T21:19:41.279Z,1.63
2024-01-05T21:22:08.214Z,1.77
2024-01-05T21:24:39.049Z,2.25
2024-01-05T21:27:05.646Z,1.02
2024-01-05T21:29:32.298Z,1.30
2024-01-05T21:31:58.914Z,1.02
2024-01-05T21:34:25.561Z,1.05
2024-01-05T21:36:52.204Z,1.27
2024-01-05T21:39:19.046Z,2.70
2024-01-05T21:41:47.907Z,2.60
2024-01-05T21:44:15.017Z,1.75
2024-01-05T21:46:41.651Z,2.08
2024-01-05T21:49:09.908Z,2.17
2024-01-05T21:51:37.234Z,2.05
2024-01-05T21:54:04.237Z,2.17
2024-01-05T21:56:30.901Z,2.90
2024-01-05T21:58:57.816Z,2.67
2024-01-05T22:01:24.454Z,2.00
2024-01-05T22:03:51.214Z,2.00
2024-01-05T22:06:17.909Z,2.05
2024-01-05T22:08:44.604Z,2.33
2024-01-05T22:11:11.107Z,1.88
2024-01-05T22:13:37.649Z,2.60
2024-01-05T22:16:04.319Z,2.05
2024-01-05T22:18:34.384Z,2.20
2024-01-05T22:21:08.813Z,2.78
2024-01-05T22:23:37.539Z,2.53
2024-01-05T22:26:05.601Z,2.22
2024-01-05T22:28:32.149Z,2.70
2024-01-05T22:30:58.727Z,2.53
2024-01-05T22:33:25.421Z,2.78
2024-01-05T22:35:53.971Z,2.58
2024-01-05T22:38:23.456Z,2.30
2024-01-05T22:40:50.861Z,2.63
2024-01-05T22:43:17.421Z,2.00
2024-01-05T22:45:44.091Z,2.53
2024-01-05T22:48:12.093Z,2.63
2024-01-05T22:50:38.720Z,2.97
2024-01-05T22:53:05.241Z,2.90
2024-01-05T22:55:31.750Z,2.35
2024-01-05T22:57:58.279Z,2.38
2024-01-05T23:00:34.411Z,2.75
2024-01-05T23:03:06.492Z,2.83
2024-01-05T23:05:33.222Z,2.67
2024-01-05T23:07:59.862Z,3.05
2024-01-05T23:10:27.350Z,2.47
2024-01-05T23:12:54.807Z,2.72
2024-01-05T23:15:21.624Z,2.60
2024-01-05T23:17:48.226Z,2.83
2024-01-05T23:20:15.043Z,2.72
2024-01-05T23:22:41.722Z,2.80
2024-01-05T23:25:10.371Z,3.03
2024-01-05T23:27:37.605Z,3.22
2024-01-05T23:30:04.949Z,3.00
2024-01-05T23:32:31.699Z,3.42
2024-01-05T23:34:58.417Z,3.47
2024-01-05T23:37:25.401Z,4.00
2024-01-05T23:39:52.057Z,3.60
2024-01-05T23:42:18.745Z,3.33
2024-01-05T23:44:45.383Z,3.85
2024-01-05T23:47:12.033Z,4.05
2024-01-05T23:49:38.706Z,4.07
2024-01-05T23:52:05.545Z,4.45
2024-01-05T23:54:32.227Z,4.60
2024-01-05T23:56:58.796Z,4.95
2024-01-05T23:59:25.356Z,4.90
